Time;durP1;ratioP1;P1;durP2;ratioP2;P2;SDS_P1;SDS_P2;PMS_P1;PMS_P2;Temp;Humidity;BMP_temperature;BMP_pressure;BME280_temperature;BME280_humidity;BME280_pressure;Samples;Min_cycle;Max_cycle;Signal;HPM_P1;HPM_P2
2023/09/21 00:01:45;;;;;;;1.65;1.55;;;;;;;;;;4131883;28;19945;-67
2023/09/21 00:03:48;;;;;;;6.03;1.20;;;;;;;;;;4131437;28;20116;-67
2023/09/21 00:05:51;;;;;;;1.73;1.40;;;;;;;;;;4130728;28;20151;-68
2023/09/21 00:07:57;;;;;;;;;;;;;;;;;;4131070;28;20507;-68
2023/09/21 00:09:58;;;;;;;5.13;1.73;;;;;;;;;;4131888;28;19928;-67
2023/09/21 00:12:00;;;;;;;1.33;1.33;;;;;;;;;;4131878;28;20053;-68
2023/09/21 00:14:02;;;;;;;3.55;1.70;;;;;;;;;;4131664;28;20050;-68
2023/09/21 00:16:08;;;;;;;3.88;1.42;;;;;;;;;;4131620;28;20077;-68
2023/09/21 00:18:10;;;;;;;3.10;1.75;;;;;;;;;;4131636;28;20064;-67
2023/09/21 00:20:25;;;;;;;1.85;1.50;;;;;;;;;;4131430;28;20402;-67
2023/09/21 00:22:27;;;;;;;4.18;1.73;;;;;;;;;;4131619;28;20501;-68
2023/09/21 00:24:30;;;;;;;1.65;1.35;;;;;;;;;;4131510;28;20049;-68
2023/09/21 00:26:34;;;;;;;1.88;1.40;;;;;;;;;;4131573;28;20081;-67
2023/09/21 00:28:35;;;;;;;1.00;1.00;;;;;;;;;;4131463;28;20128;-67
2023/09/21 00:30:37;;;;;;;4.35;1.63;;;;;;;;;;4131522;28;20042;-69
2023/09/21 00:32:39;;;;;;;4.20;1.20;;;;;;;;;;4131480;28;20054;-68
2023/09/21 00:34:41;;;;;;;7.10;1.60;;;;;;;;;;4131484;28;20092;-68
2023/09/21 00:36:44;;;;;;;2.10;1.38;;;;;;;;;;4131604;28;20049;-68
2023/09/21 00:38:46;;;;;;;4.28;2.13;;;;;;;;;;4131038;28;20039;-68
2023/09/21 00:40:49;;;;;;;5.00;1.60;;;;;;;;;;4131420;28;20096;-68
2023/09/21 00:42:53;;;;;;;4.03;1.20;;;;;;;;;;4131732;28;20042;-68
2023/09/21 00:44:55;;;;;;;4.80;1.50;;;;;;;;;;4132391;28;20288;-68
2023/09/21 00:46:57;;;;;;;4.75;1.40;;;;;;;;;;4129282;28;20057;-68
2023/09/21 00:48:59;;;;;;;;;;;;;;;;;;4119043;28;20098;-68
2023/09/21 00:51:05;;;;;;;3.97;1.70;;;;;;;;;;4118622;28;19958;-68
2023/09/21 00:53:12;;;;;;;3.38;1.75;;;;;;;;;;4118582;28;20503;-67
2023/09/21 00:55:23;;;;;;;1.40;1.13;;;;;;;;;;4128278;28;20046;-68
2023/09/21 00:57:25;;;;;;;3.28;1.77;;;;;;;;;;4134498;28;20085;-68
2023/09/21 00:59:29;;;;;;;1.50;1.40;;;;;;;;;;4133910;28;20093;-67
2023/09/21 01:01:31;;;;;;;3.65;1.60;;;;;;;;;;4134811;28;20046;-68
2023/09/21 01:03:37;;;;;;;2.80;1.27;;;;;;;;;;4134236;28;20515;-68
2023/09/21 01:05:40;;;;;;;2.85;1.60;;;;;;;;;;4134189;28;20053;-67
2023/09/21 01:07:43;;;;;;;;;;;;;;;;;;4134886;28;20073;-68
2023/09/21 01:09:45;;;;;;;5.97;2.10;;;;;;;;;;4134436;28;19921;-68
2023/09/21 01:11:47;;;;;;;5.32;1.52;;;;;;;;;;4134382;28;20038;-68
2023/09/21 01:13:51;;;;;;;1.67;1.58;;;;;;;;;;4134347;28;20038;-68
2023/09/21 01:16:00;;;;;;;6.30;1.80;;;;;;;;;;4134334;28;20413;-68
2023/09/21 01:18:06;;;;;;;4.00;1.52;;;;;;;;;;4130079;28;20046;-68
2023/09/21 01:20:14;;;;;;;2.58;1.40;;;;;;;;;;4134332;28;20514;-68
2023/09/21 01:22:16;;;;;;;2.00;1.77;;;;;;;;;;4134268;28;20502;-68
2023/09/21 01:24:22;;;;;;;4.47;1.50;;;;;;;;;;4134080;28;20076;-68
2023/09/21 01:26:23;;;;;;;4.65;1.50;;;;;;;;;;4134131;28;20321;-68
2023/09/21 01:28:27;;;;;;;2.20;1.57;;;;;;;;;;4134108;28;20046;-68
2023/09/21 01:30:29;;;;;;;2.67;1.25;;;;;;;;;;4134062;28;20289;-68
2023/09/21 01:32:31;;;;;;;1.53;1.40;;;;;;;;;;4133997;28;20081;-68
2023/09/21 01:34:36;;;;;;;2.20;1.30;;;;;;;;;;4134074;28;20045;-69
2023/09/21 01:36:37;;;;;;;1.63;1.30;;;;;;;;;;4134055;28;20110;-68
2023/09/21 01:38:44;;;;;;;3.65;1.55;;;;;;;;;;4133902;28;20449;-68
2023/09/21 01:40:46;;;;;;;5.43;1.75;;;;;;;;;;4133915;28;20581;-68
2023/09/21 01:42:48;;;;;;;4.82;1.55;;;;;;;;;;4131825;28;20039;-68
2023/09/21 01:44:50;;;;;;;4.00;1.52;;;;;;;;;;4118114;28;20047;-68
2023/09/21 01:46:52;;;;;;;8.38;1.70;;;;;;;;;;4124981;28;20052;-67
2023/09/21 01:48:54;;;;;;;;;;;;;;;;;;4134233;28;20462;-68
2023/09/21 01:50:59;;;;;;;2.80;1.50;;;;;;;;;;4148731;28;19947;-68
2023/09/21 01:53:05;;;;;;;1.63;1.52;;;;;;;;;;4133759;28;20065;-68
2023/09/21 01:55:10;;;;;;;5.60;2.17;;;;;;;;;;4133707;28;20066;-68
2023/09/21 01:57:12;;;;;;;5.03;1.73;;;;;;;;;;4132530;28;20465;-68
2023/09/21 01:59:14;;;;;;;1.55;1.55;;;;;;;;;;4129134;28;20130;-68
2023/09/21 02:01:16;;;;;;;3.00;1.60;;;;;;;;;;4117517;28;20038;-68
2023/09/21 02:03:20;;;;;;;4.07;1.75;;;;;;;;;;4129280;28;20064;-68
2023/09/21 02:05:23;;;;;;;4.35;1.55;;;;;;;;;;4133674;28;20046;-67
2023/09/21 02:07:25;;;;;;;2.65;1.67;;;;;;;;;;4133582;28;20034;-68
2023/09/21 02:09:27;;;;;;;3.83;2.20;;;;;;;;;;4133509;28;20041;-68
2023/09/21 02:11:29;;;;;;;4.47;2.40;;;;;;;;;;4133386;28;20301;-68
2023/09/21 02:13:31;;;;;;;2.35;1.55;;;;;;;;;;4133312;28;20050;-68
2023/09/21 02:15:40;;;;;;;3.60;1.33;;;;;;;;;;4133376;28;20498;-68
2023/09/21 02:17:42;;;;;;;2.60;1.58;;;;;;;;;;4133370;28;20105;-68
2023/09/21 02:19:44;;;;;;;;;;;;;;;;;;4133888;28;20039;-68
2023/09/21 02:21:46;;;;;;;7.47;1.63;;;;;;;;;;4133302;28;20468;-69
2023/09/21 02:23:48;;;;;;;2.40;2.30;;;;;;;;;;4133164;28;20054;-68
2023/09/21 02:25:52;;;;;;;2.80;1.98;;;;;;;;;;4133531;28;20056;-69
2023/09/21 02:27:54;;;;;;;4.40;1.70;;;;;;;;;;4133109;28;20097;-68
2023/09/21 02:29:55;;;;;;;4.05;3.10;;;;;;;;;;4133120;28;20073;-68
2023/09/21 02:31:57;;;;;;;2.00;1.90;;;;;;;;;;4133010;28;20046;-68
2023/09/21 02:33:59;;;;;;;2.77;2.23;;;;;;;;;;4133169;28;20513;-68
2023/09/21 02:36:00;;;;;;;5.15;2.40;;;;;;;;;;4133392;28;20056;-67
2023/09/21 02:38:03;;;;;;;3.45;3.17;;;;;;;;;;4133065;28;20133;-68
2023/09/21 02:40:07;;;;;;;;;;;;;;;;;;4122880;28;20474;-69
2023/09/21 02:42:09;;;;;;;6.78;2.85;;;;;;;;;;4116912;28;19922;-68
2023/09/21 02:44:13;;;;;;;2.17;2.05;;;;;;;;;;4116867;28;20038;-69
2023/09/21 02:46:15;;;;;;;3.80;2.53;;;;;;;;;;4118839;28;20499;-68
2023/09/21 02:48:17;;;;;;;5.90;2.00;;;;;;;;;;4132824;28;20038;-68
2023/09/21 02:50:22;;;;;;;5.22;2.22;;;;;;;;;;4132845;28;20466;-68
2023/09/21 02:52:23;;;;;;;4.53;2.08;;;;;;;;;;4132802;28;20046;-68
2023/09/21 02:54:27;;;;;;;4.13;1.88;;;;;;;;;;4132737;28;20054;-69
2023/09/21 02:56:29;;;;;;;3.30;2.65;;;;;;;;;;4132765;28;20042;-68
2023/09/21 02:58:31;;;;;;;3.25;2.83;;;;;;;;;;4132689;28;20490;-68
2023/09/21 03:00:42;;;;;;;3.38;1.23;;;;;;;;;;4132482;28;20042;-68
2023/09/21 03:02:45;;;;;;;6.82;2.45;;;;;;;;;;4117588;28;20086;-68
2023/09/21 03:04:50;;;;;;;3.67;2.75;;;;;;;;;;4116297;28;20483;-68
2023/09/21 03:06:52;;;;;;;2.40;1.98;;;;;;;;;;4116511;28;20053;-68
2023/09/21 03:08:54;;;;;;;;;;;;;;;;;;4119805;28;20046;-68
2023/09/21 03:10:56;;;;;;;3.08;1.85;;;;;;;;;;4132546;28;19926;-69
2023/09/21 03:12:58;;;;;;;2.58;1.83;;;;;;;;;;4132501;28;20073;-68
2023/09/21 03:15:00;;;;;;;3.90;1.50;;;;;;;;;;4132472;28;20129;-68
2023/09/21 03:17:02;;;;;;;4.07;2.67;;;;;;;;;;4132392;28;20116;-68
2023/09/21 03:19:04;;;;;;;2.65;2.45;;;;;;;;;;4132406;28;20684;-68
2023/09/21 03:21:15;;;;;;;3.00;1.80;;;;;;;;;;4131227;28;20034;-68
2023/09/21 03:23:17;;;;;;;2.97;1.60;;;;;;;;;;4132513;28;20080;-68
2023/09/21 03:25:25;;;;;;;2.35;2.20;;;;;;;;;;4132359;28;20070;-68
2023/09/21 03:27:28;;;;;;;2.90;1.75;;;;;;;;;;4132388;28;20085;-68
2023/09/21 03:29:31;;;;;;;1.27;1.20;;;;;;;;;;4132683;28;20070;-68
2023/09/21 03:31:32;;;;;;;2.85;2.08;;;;;;;;;;4132253;28;20050;-68
2023/09/21 03:33:34;;;;;;;2.80;2.08;;;;;;;;;;4132206;28;20117;-68
2023/09/21 03:35:37;;;;;;;3.03;2.75;;;;;;;;;;4127722;28;20027;-68
2023/09/21 03:37:41;;;;;;;6.05;2.70;;;;;;;;;;4116401;28;20483;-68
2023/09/21 03:39:43;;;;;;;3.95;1.98;;;;;;;;;;4115976;28;20049;-68
2023/09/21 03:41:46;;;;;;;5.45;2.67;;;;;;;;;;4115994;28;20411;-68
2023/09/21 03:43:49;;;;;;;6.72;2.28;;;;;;;;;;4124072;28;20066;-68
2023/09/21 03:45:51;;;;;;;2.65;2.17;;;;;;;;;;4131992;28;20053;-68
2023/09/21 03:47:53;;;;;;;4.28;2.55;;;;;;;;;;4131842;28;20051;-68
2023/09/21 03:49:56;;;;;;;1.85;1.58;;;;;;;;;;4131953;28;20077;-68
2023/09/21 03:51:57;;;;;;;4.10;2.15;;;;;;;;;;4132092;28;20054;-68
2023/09/21 03:54:02;;;;;;;1.77;1.48;;;;;;;;;;4131981;28;20507;-68
2023/09/21 03:56:04;;;;;;;6.18;2.00;;;;;;;;;;4131947;28;20066;-69
2023/09/21 03:58:07;;;;;;;2.25;2.05;;;;;;;;;;4131964;28;20376;-68
2023/09/21 04:02:29;;;;;;;4.05;2.85;;;;;;;;;;4131919;28;20046;-68
2023/09/21 04:04:31;;;;;;;6.13;2.10;;;;;;;;;;4131715;28;20050;-68
2023/09/21 04:06:33;;;;;;;2.33;1.98;;;;;;;;;;4131554;28;20081;-68
2023/09/21 04:08:34;;;;;;;3.60;1.97;;;;;;;;;;4131845;28;20046;-68
2023/09/21 04:10:36;;;;;;;3.92;1.77;;;;;;;;;;4131704;28;20693;-68
2023/09/21 04:12:39;;;;;;;3.13;1.88;;;;;;;;;;4131617;28;20133;-68
2023/09/21 04:14:40;;;;;;;;;;;;;;;;;;4129359;28;20042;-69
2023/09/21 04:16:42;;;;;;;2.13;1.90;;;;;;;;;;4122477;28;19925;-69
2023/09/21 04:18:44;;;;;;;1.90;1.65;;;;;;;;;;4121630;28;20121;-68
2023/09/21 04:20:46;;;;;;;1.80;1.70;;;;;;;;;;4123963;28;20048;-68
2023/09/21 04:22:49;;;;;;;3.07;1.70;;;;;;;;;;4127063;28;20120;-68
2023/09/21 04:24:51;;;;;;;6.75;2.42;;;;;;;;;;4115467;28;20290;-68
2023/09/21 04:26:53;;;;;;;2.40;2.25;;;;;;;;;;4115537;28;20426;-68
2023/09/21 04:28:55;;;;;;;4.00;1.73;;;;;;;;;;4115433;28;20511;-68
2023/09/21 04:30:59;;;;;;;1.33;1.23;;;;;;;;;;4115393;28;20054;-68
2023/09/21 04:33:01;;;;;;;2.40;1.90;;;;;;;;;;4115525;28;20097;-68
2023/09/21 04:35:06;;;;;;;4.47;1.67;;;;;;;;;;4115403;28;20463;-68
2023/09/21 04:37:09;;;;;;;3.72;1.63;;;;;;;;;;4115587;28;20043;-68
2023/09/21 04:39:14;;;;;;;3.92;1.67;;;;;;;;;;4120328;28;20388;-69
2023/09/21 04:41:17;;;;;;;2.00;1.80;;;;;;;;;;4119259;28;20134;-68
2023/09/21 04:43:20;;;;;;;2.90;2.28;;;;;;;;;;4130610;28;20042;-68
2023/09/21 04:45:21;;;;;;;2.92;1.48;;;;;;;;;;4115198;28;20049;-68
2023/09/21 04:47:23;;;;;;;4.80;2.15;;;;;;;;;;4128982;28;20502;-68
2023/09/21 04:49:25;;;;;;;2.38;1.70;;;;;;;;;;4131530;28;20054;-68
2023/09/21 04:51:27;;;;;;;3.85;2.08;;;;;;;;;;4131209;28;20089;-68
2023/09/21 04:53:29;;;;;;;4.17;1.53;;;;;;;;;;4131182;28;20080;-68
2023/09/21 04:55:31;;;;;;;5.38;3.13;;;;;;;;;;4131369;28;20328;-68
2023/09/21 04:57:34;;;;;;;3.90;1.42;;;;;;;;;;4131202;28;20059;-68
2023/09/21 04:59:35;;;;;;;3.00;1.80;;;;;;;;;;4131198;28;20042;-68
2023/09/21 05:01:37;;;;;;;6.88;2.05;;;;;;;;;;4128762;28;20053;-69
2023/09/21 05:03:38;;;;;;;3.00;1.48;;;;;;;;;;4130902;28;20398;-68
2023/09/21 05:05:40;;;;;;;10.40;2.10;;;;;;;;;;4131276;28;20149;-69
2023/09/21 05:07:42;;;;;;;2.15;1.75;;;;;;;;;;4131189;28;20129;-69
2023/09/21 05:09:45;;;;;;;5.05;2.28;;;;;;;;;;4131126;28;20042;-68
2023/09/21 05:11:50;;;;;;;5.32;2.38;;;;;;;;;;4131303;28;20054;-67
2023/09/21 05:13:52;;;;;;;4.82;2.20;;;;;;;;;;4125463;28;20038;-67
2023/09/21 05:15:54;;;;;;;6.85;2.80;;;;;;;;;;4117573;28;20085;-67
2023/09/21 05:17:56;;;;;;;5.07;2.42;;;;;;;;;;4123023;28;20122;-68
2023/09/21 05:19:57;;;;;;;5.07;3.25;;;;;;;;;;4119235;28;20047;-64
2023/09/21 05:22:00;;;;;;;5.93;2.88;;;;;;;;;;4114893;28;20094;-64
2023/09/21 05:24:02;;;;;;;3.60;3.33;;;;;;;;;;4115162;28;20042;-64
2023/09/21 05:26:04;;;;;;;4.68;2.67;;;;;;;;;;4114874;28;20066;-64
2023/09/21 05:28:05;;;;;;;3.08;2.65;;;;;;;;;;4114829;28;20066;-64
2023/09/21 05:30:10;;;;;;;3.78;3.38;;;;;;;;;;4115048;28;20049;-64
2023/09/21 05:32:12;;;;;;;3.80;3.47;;;;;;;;;;4117638;28;20042;-64
2023/09/21 05:34:14;;;;;;;4.67;3.80;;;;;;;;;;4117866;28;20078;-64
2023/09/21 05:36:16;;;;;;;6.63;3.40;;;;;;;;;;4139277;28;20792;-64
2023/09/21 05:38:19;;;;;;;4.53;4.05;;;;;;;;;;4133917;28;20054;-64
2023/09/21 05:40:21;;;;;;;6.22;4.10;;;;;;;;;;4133816;28;20049;-64
2023/09/21 05:42:23;;;;;;;;;;;;;;;;;;4134473;28;20096;-65
2023/09/21 05:44:25;;;;;;;8.80;4.90;;;;;;;;;;4133759;28;19968;-64
2023/09/21 05:46:27;;;;;;;5.03;4.70;;;;;;;;;;4133784;28;20325;-64
2023/09/21 05:48:29;;;;;;;5.85;5.03;;;;;;;;;;4133850;28;20050;-64
2023/09/21 05:50:31;;;;;;;4.05;3.72;;;;;;;;;;4133921;28;20057;-64
2023/09/21 05:52:35;;;;;;;7.18;3.60;;;;;;;;;;4133733;28;20054;-64
2023/09/21 05:54:37;;;;;;;4.50;3.08;;;;;;;;;;4133819;28;20045;-64
2023/09/21 05:56:39;;;;;;;5.50;3.53;;;;;;;;;;4133767;28;20402;-64
2023/09/21 05:58:40;;;;;;;4.78;2.85;;;;;;;;;;4133608;28;20042;-64
2023/09/21 06:00:42;;;;;;;4.00;3.70;;;;;;;;;;4133687;28;20039;-63
2023/09/21 06:02:44;;;;;;;3.45;3.22;;;;;;;;;;4133548;28;20458;-64
2023/09/21 06:04:49;;;;;;;4.03;2.90;;;;;;;;;;4133448;28;20058;-64
2023/09/21 06:06:58;;;;;;;2.90;2.72;;;;;;;;;;4133577;28;20487;-64
2023/09/21 06:09:00;;;;;;;4.75;2.72;;;;;;;;;;4133638;28;20058;-65
2023/09/21 06:11:02;;;;;;;3.45;3.17;;;;;;;;;;4133502;28;20057;-64
2023/09/21 06:13:07;;;;;;;4.60;3.50;;;;;;;;;;4133457;28;20093;-64
2023/09/21 06:15:10;;;;;;;4.72;2.42;;;;;;;;;;4133320;28;20034;-63
2023/09/21 06:17:13;;;;;;;2.78;2.13;;;;;;;;;;4133498;28;20038;-64
2023/09/21 06:19:16;;;;;;;5.55;2.95;;;;;;;;;;4133385;28;20092;-63
2023/09/21 06:21:18;;;;;;;3.42;2.47;;;;;;;;;;4133431;28;20490;-64
2023/09/21 06:23:20;;;;;;;2.83;2.25;;;;;;;;;;4133322;28;20045;-63
2023/09/21 06:25:21;;;;;;;3.85;2.70;;;;;;;;;;4120664;28;20043;-63
2023/09/21 06:27:23;;;;;;;3.35;3.05;;;;;;;;;;4117212;28;20043;-64
2023/09/21 06:29:25;;;;;;;4.75;2.15;;;;;;;;;;4117251;28;20126;-63
2023/09/21 06:31:27;;;;;;;2.42;2.30;;;;;;;;;;4117111;28;20043;-63
2023/09/21 06:33:28;;;;;;;2.80;2.60;;;;;;;;;;4132636;28;20038;-63
2023/09/21 06:35:30;;;;;;;2.75;2.00;;;;;;;;;;4133262;28;20045;-63
2023/09/21 06:37:33;;;;;;;4.90;2.42;;;;;;;;;;4133463;28;20049;-63
2023/09/21 06:39:34;;;;;;;;;;;;;;;;;;4133284;28;20112;-63
2023/09/21 06:41:37;;;;;;;4.40;2.53;;;;;;;;;;4133004;28;20279;-63
2023/09/21 06:43:42;;;;;;;1.60;1.45;;;;;;;;;;4132444;28;20046;-63
2023/09/21 06:45:44;;;;;;;2.78;1.70;;;;;;;;;;4132877;28;20071;-63
2023/09/21 06:47:47;;;;;;;3.30;2.70;;;;;;;;;;4132733;28;20100;-63
2023/09/21 06:49:50;;;;;;;2.40;1.90;;;;;;;;;;4132911;28;20052;-63
2023/09/21 06:51:52;;;;;;;2.80;1.90;;;;;;;;;;4132848;28;20108;-63
2023/09/21 06:53:54;;;;;;;2.88;2.10;;;;;;;;;;4132670;28;20118;-63
2023/09/21 06:55:56;;;;;;;5.43;1.80;;;;;;;;;;4132869;28;20042;-63
2023/09/21 06:57:57;;;;;;;4.05;1.98;;;;;;;;;;4132779;28;20149;-63
2023/09/21 06:59:59;;;;;;;6.03;2.83;;;;;;;;;;4132748;28;20074;-63
2023/09/21 07:02:01;;;;;;;3.95;2.50;;;;;;;;;;4132752;28;20042;-63
2023/09/21 07:04:03;;;;;;;2.43;2.23;;;;;;;;;;4132646;28;20057;-63
2023/09/21 07:06:06;;;;;;;8.27;2.67;;;;;;;;;;4132646;28;20051;-63
2023/09/21 07:08:07;;;;;;;5.07;2.65;;;;;;;;;;4132611;28;20034;-63
2023/09/21 07:10:10;;;;;;;2.35;2.25;;;;;;;;;;4132628;28;20089;-63
2023/09/21 07:12:12;;;;;;;4.30;2.35;;;;;;;;;;4132660;28;20048;-64
2023/09/21 07:14:14;;;;;;;3.05;2.53;;;;;;;;;;4132363;28;20042;-63
2023/09/21 07:16:18;;;;;;;4.90;1.90;;;;;;;;;;4132501;28;20140;-64
2023/09/21 07:18:20;;;;;;;2.10;1.85;;;;;;;;;;4132441;28;20096;-63
2023/09/21 07:20:23;;;;;;;5.43;2.30;;;;;;;;;;4129876;28;20046;-63
2023/09/21 07:22:25;;;;;;;3.72;1.45;;;;;;;;;;4116388;28;20407;-64
2023/09/21 07:24:28;;;;;;;1.80;1.70;;;;;;;;;;4116534;28;20109;-63
2023/09/21 07:26:30;;;;;;;5.03;1.50;;;;;;;;;;4116307;28;20039;-62
2023/09/21 07:28:32;;;;;;;;;;;;;;;;;;4122771;28;20070;-62
2023/09/21 07:30:35;;;;;;;5.93;1.73;;;;;;;;;;4132214;28;19921;-63
2023/09/21 07:32:37;;;;;;;2.95;2.75;;;;;;;;;;4132531;28;20050;-64
2023/09/21 07:34:39;;;;;;;2.50;2.30;;;;;;;;;;4132350;28;20529;-63
2023/09/21 07:36:41;;;;;;;;;;;;;;;;;;4132732;28;20545;-63
2023/09/21 07:38:43;;;;;;;1.77;1.52;;;;;;;;;;4131910;28;20020;-63
2023/09/21 07:40:44;;;;;;;3.08;2.65;;;;;;;;;;4132140;28;20038;-62
2023/09/21 07:42:48;;;;;;;4.35;1.95;;;;;;;;;;4132203;28;20054;-62
2023/09/21 07:44:50;;;;;;;5.45;2.05;;;;;;;;;;4132046;28;20506;-63
2023/09/21 07:46:52;;;;;;;6.07;2.25;;;;;;;;;;4131943;28;20065;-63
2023/09/21 07:48:54;;;;;;;2.45;1.58;;;;;;;;;;4132028;28;20042;-62
2023/09/21 07:50:56;;;;;;;4.43;2.58;;;;;;;;;;4132114;28;20081;-63
2023/09/21 07:52:59;;;;;;;7.40;2.25;;;;;;;;;;4131814;28;20046;-63
2023/09/21 07:55:02;;;;;;;;;;;;;;;;;;4130262;28;20509;-63
2023/09/21 07:57:04;;;;;;;3.22;1.90;;;;;;;;;;4131879;28;19921;-63
2023/09/21 07:59:09;;;;;;;4.82;2.15;;;;;;;;;;4131990;28;20118;-63
2023/09/21 08:01:11;;;;;;;5.13;2.72;;;;;;;;;;4131789;28;20045;-62
2023/09/21 08:03:13;;;;;;;2.30;1.73;;;;;;;;;;4131604;28;20112;-62
2023/09/21 08:05:15;;;;;;;;;;;;;;;;;;4132081;28;20058;-62
2023/09/21 08:07:23;;;;;;;5.40;2.10;;;;;;;;;;4131654;28;20016;-62
2023/09/21 08:09:25;;;;;;;2.17;2.05;;;;;;;;;;4131691;28;20042;-62
2023/09/21 08:11:33;;;;;;;3.05;1.67;;;;;;;;;;4131871;28;20045;-62
2023/09/21 08:13:35;;;;;;;3.53;2.22;;;;;;;;;;4131671;28;20066;-62
2023/09/21 08:15:36;;;;;;;2.30;1.50;;;;;;;;;;4131617;28;20042;-63
2023/09/21 08:17:38;;;;;;;4.43;2.13;;;;;;;;;;4121024;28;20074;-62
2023/09/21 08:19:40;;;;;;;;;;;;;;;;;;4115947;28;20495;-62
2023/09/21 08:21:42;;;;;;;2.42;2.03;;;;;;;;;;4115494;28;19989;-62
2023/09/21 08:23:46;;;;;;;3.03;2.20;;;;;;;;;;4115425;28;20074;-62
2023/09/21 08:25:48;;;;;;;6.15;2.00;;;;;;;;;;4129573;28;20046;-62
2023/09/21 08:27:50;;;;;;;5.15;2.38;;;;;;;;;;4131715;28;20042;-62
2023/09/21 08:29:52;;;;;;;5.00;2.03;;;;;;;;;;4131505;28;20050;-62
2023/09/21 08:31:53;;;;;;;4.75;2.60;;;;;;;;;;4131490;28;20121;-62
2023/09/21 08:33:55;;;;;;;3.13;2.30;;;;;;;;;;4131400;28;20054;-62
2023/09/21 08:35:57;;;;;;;7.05;2.17;;;;;;;;;;4131351;28;20046;-62
2023/09/21 08:37:59;;;;;;;5.10;2.35;;;;;;;;;;4131434;28;20046;-62
2023/09/21 08:40:02;;;;;;;6.45;2.85;;;;;;;;;;4131101;28;20693;-61
2023/09/21 08:42:04;;;;;;;2.38;1.60;;;;;;;;;;4131544;28;20089;-62
2023/09/21 08:44:07;;;;;;;3.53;2.60;;;;;;;;;;4131260;28;20457;-62
2023/09/21 08:46:11;;;;;;;8.23;3.60;;;;;;;;;;4131032;28;20038;-62
2023/09/21 08:48:15;;;;;;;2.97;2.55;;;;;;;;;;4131293;28;20047;-62
2023/09/21 08:50:17;;;;;;;5.70;2.75;;;;;;;;;;4131276;28;20054;-62
2023/09/21 08:52:20;;;;;;;5.75;1.90;;;;;;;;;;4130150;28;20486;-62
2023/09/21 08:54:23;;;;;;;4.03;2.13;;;;;;;;;;4131419;28;20046;-62
2023/09/21 08:56:27;;;;;;;5.05;1.67;;;;;;;;;;4131276;28;20397;-62
2023/09/21 08:58:33;;;;;;;6.30;1.92;;;;;;;;;;4131212;28;20502;-62
2023/09/21 09:00:35;;;;;;;4.28;2.05;;;;;;;;;;4131199;28;20049;-62
2023/09/21 09:02:37;;;;;;;4.90;1.75;;;;;;;;;;4131262;28;20130;-63
2023/09/21 09:04:39;;;;;;;;;;;;;;;;;;4131237;28;20117;-63
2023/09/21 09:06:40;;;;;;;4.75;2.05;;;;;;;;;;4133395;28;19930;-63
2023/09/21 09:08:44;;;;;;;2.75;1.45;;;;;;;;;;4134495;28;20074;-63
2023/09/21 09:10:46;;;;;;;3.67;1.20;;;;;;;;;;4134361;28;20418;-62
2023/09/21 09:12:55;;;;;;;4.03;1.33;;;;;;;;;;4132457;28;20042;-62
2023/09/21 09:15:01;;;;;;;3.13;1.42;;;;;;;;;;4134323;28;20042;-63
2023/09/21 09:17:11;;;;;;;4.05;1.40;;;;;;;;;;4134319;28;20084;-62
2023/09/21 09:19:13;;;;;;;1.95;1.00;;;;;;;;;;4134345;28;20038;-62
2023/09/21 09:21:15;;;;;;;4.07;1.98;;;;;;;;;;4134259;28;20062;-63
2023/09/21 09:23:18;;;;;;;2.15;1.10;;;;;;;;;;4134041;28;20078;-63
2023/09/21 09:25:21;;;;;;;2.78;1.40;;;;;;;;;;4134191;28;20062;-63
2023/09/21 09:27:24;;;;;;;3.53;1.20;;;;;;;;;;4133093;28;20050;-64
2023/09/21 09:29:26;;;;;;;3.80;1.35;;;;;;;;;;4134087;28;20050;-62
2023/09/21 09:31:28;;;;;;;6.68;1.40;;;;;;;;;;4134147;28;20046;-64
2023/09/21 09:33:33;;;;;;;2.67;1.00;;;;;;;;;;4133913;28;20418;-63
2023/09/21 09:35:37;;;;;;;2.63;1.27;;;;;;;;;;4132864;28;20117;-63
2023/09/21 09:37:45;;;;;;;1.98;1.10;;;;;;;;;;4134001;28;20073;-63
2023/09/21 09:39:48;;;;;;;1.38;1.27;;;;;;;;;;4133902;28;20130;-62
2023/09/21 09:41:50;;;;;;;5.68;1.23;;;;;;;;;;4128015;28;20418;-62
2023/09/21 09:43:53;;;;;;;4.20;1.83;;;;;;;;;;4133974;28;20054;-64
2023/09/21 09:45:56;;;;;;;3.75;1.30;;;;;;;;;;4133918;28;20057;-63
2023/09/21 09:48:01;;;;;;;3.08;0.90;;;;;;;;;;4133662;28;20077;-63
2023/09/21 09:50:04;;;;;;;3.08;0.90;;;;;;;;;;4130405;28;20096;-64
2023/09/21 09:52:09;;;;;;;2.53;1.20;;;;;;;;;;4130120;28;20042;-63
2023/09/21 09:54:12;;;;;;;1.38;1.00;;;;;;;;;;4120517;28;20090;-64
2023/09/21 09:56:14;;;;;;;4.07;1.02;;;;;;;;;;4130658;28;20085;-63
2023/09/21 09:58:16;;;;;;;1.17;0.90;;;;;;;;;;4147256;28;20038;-64
2023/09/21 10:00:21;;;;;;;1.70;0.98;;;;;;;;;;4128715;28;20042;-64
2023/09/21 10:02:25;;;;;;;3.72;1.23;;;;;;;;;;4121872;28;20050;-63
2023/09/21 10:04:33;;;;;;;1.10;1.00;;;;;;;;;;4127568;28;20081;-63
2023/09/21 10:06:36;;;;;;;1.42;0.90;;;;;;;;;;4117622;28;20121;-63
2023/09/21 10:08:39;;;;;;;2.33;1.08;;;;;;;;;;4117437;28;20043;-62
2023/09/21 10:10:46;;;;;;;1.30;0.90;;;;;;;;;;4116037;28;20050;-64
2023/09/21 10:12:52;;;;;;;1.80;0.90;;;;;;;;;;4124546;28;20050;-63
2023/09/21 10:14:54;;;;;;;1.90;1.17;;;;;;;;;;4117297;28;20569;-63
2023/09/21 10:16:56;;;;;;;1.77;0.90;;;;;;;;;;4122380;28;20043;-63
2023/09/21 10:19:00;;;;;;;2.05;0.90;;;;;;;;;;4133050;28;20046;-64
2023/09/21 10:21:24;;;;;;;2.78;0.90;;;;;;;;;;4132723;28;20514;-63
2023/09/21 10:23:27;;;;;;;4.28;0.80;;;;;;;;;;4116625;28;20038;-63
2023/09/21 10:25:31;;;;;;;;;;;;;;;;;;4117717;28;20043;-64
2023/09/21 10:27:36;;;;;;;2.13;0.90;;;;;;;;;;4116880;28;19989;-63
2023/09/21 10:29:38;;;;;;;1.70;1.15;;;;;;;;;;4116995;28;20050;-63
2023/09/21 10:31:43;;;;;;;2.22;0.80;;;;;;;;;;4125605;28;20483;-63
2023/09/21 10:33:50;;;;;;;3.13;1.27;;;;;;;;;;4131617;28;20042;-63
2023/09/21 10:35:53;;;;;;;4.95;1.00;;;;;;;;;;4133497;28;20062;-63
2023/09/21 10:38:11;;;;;;;4.57;0.80;;;;;;;;;;4133511;28;20141;-63
2023/09/21 10:40:26;;;;;;;2.33;0.70;;;;;;;;;;4131936;28;20034;-62
2023/09/21 10:42:33;;;;;;;0.60;0.60;;;;;;;;;;4129532;28;20473;-63
2023/09/21 10:44:53;;;;;;;0.70;0.70;;;;;;;;;;4126198;28;20435;-63
2023/09/21 10:46:56;;;;;;;2.30;0.70;;;;;;;;;;4123947;28;20042;-62
2023/09/21 10:48:57;;;;;;;;;;;;;;;;;;4133448;28;20501;-63
2023/09/21 10:51:00;;;;;;;1.53;0.70;;;;;;;;;;4133104;28;19929;-63
2023/09/21 10:53:01;;;;;;;;;;;;;;;;;;4124922;28;20057;-63
2023/09/21 10:55:03;;;;;;;2.65;0.80;;;;;;;;;;4116717;28;20028;-62
2023/09/21 10:57:05;;;;;;;3.33;1.27;;;;;;;;;;4116922;28;20392;-62
2023/09/21 10:59:07;;;;;;;2.35;0.70;;;;;;;;;;4116738;28;20042;-63
2023/09/21 11:01:10;;;;;;;1.70;0.80;;;;;;;;;;4116115;28;20039;-64
2023/09/21 11:03:13;;;;;;;1.50;0.60;;;;;;;;;;4125959;28;20030;-63
2023/09/21 11:05:16;;;;;;;1.23;1.13;;;;;;;;;;4124847;28;20049;-63
2023/09/21 11:07:18;;;;;;;3.55;0.70;;;;;;;;;;4116142;28;20058;-65
2023/09/21 11:09:20;;;;;;;1.38;0.80;;;;;;;;;;4132032;28;20125;-63
2023/09/21 11:11:23;;;;;;;1.55;1.45;;;;;;;;;;4127726;28;20074;-63
2023/09/21 11:13:27;;;;;;;1.60;0.95;;;;;;;;;;4121314;28;20046;-63
2023/09/21 11:15:32;;;;;;;1.95;0.80;;;;;;;;;;4132236;28;20045;-63
2023/09/21 11:17:33;;;;;;;0.93;0.60;;;;;;;;;;4132448;28;20503;-63
2023/09/21 11:19:35;;;;;;;2.20;0.60;;;;;;;;;;4130849;28;20039;-63
2023/09/21 11:21:37;;;;;;;1.45;0.70;;;;;;;;;;4122646;28;20046;-64
2023/09/21 11:23:45;;;;;;;0.65;0.60;;;;;;;;;;4121808;28;20038;-62
2023/09/21 11:25:49;;;;;;;0.70;0.70;;;;;;;;;;4121813;28;20038;-63
2023/09/21 11:27:51;;;;;;;2.45;0.77;;;;;;;;;;4121364;28;20809;-63
2023/09/21 11:29:53;;;;;;;1.67;0.63;;;;;;;;;;4116110;28;20459;-63
2023/09/21 11:31:55;;;;;;;1.48;0.75;;;;;;;;;;4118421;28;20498;-63
2023/09/21 11:34:05;;;;;;;2.42;0.60;;;;;;;;;;4120101;28;20042;-63
2023/09/21 11:36:07;;;;;;;1.05;0.60;;;;;;;;;;4105912;28;20055;-64
2023/09/21 11:38:10;;;;;;;2.22;0.60;;;;;;;;;;4120775;28;20054;-64
2023/09/21 11:40:13;;;;;;;1.17;0.52;;;;;;;;;;4131892;28;20526;-63
2023/09/21 11:42:19;;;;;;;2.58;0.60;;;;;;;;;;4132235;28;20443;-64
2023/09/21 11:44:25;;;;;;;0.68;0.57;;;;;;;;;;4128492;28;20161;-64
2023/09/21 11:46:28;;;;;;;0.82;0.60;;;;;;;;;;4129976;28;20455;-64
2023/09/21 11:48:31;;;;;;;6.93;0.85;;;;;;;;;;4131902;28;20449;-64
2023/09/21 11:50:34;;;;;;;1.40;0.50;;;;;;;;;;4132061;28;20042;-64
2023/09/21 11:52:36;;;;;;;1.20;0.75;;;;;;;;;;4131999;28;20045;-64
2023/09/21 11:54:39;;;;;;;3.67;0.60;;;;;;;;;;4129913;28;20074;-65
2023/09/21 11:56:43;;;;;;;1.52;0.60;;;;;;;;;;4131791;28;20044;-66
2023/09/21 11:58:45;;;;;;;1.45;0.65;;;;;;;;;;4131796;28;20499;-64
2023/09/21 12:00:51;;;;;;;0.77;0.50;;;;;;;;;;4131842;28;20038;-64
2023/09/21 12:02:54;;;;;;;1.80;0.60;;;;;;;;;;4119188;28;20047;-64
2023/09/21 12:04:56;;;;;;;0.95;0.55;;;;;;;;;;4115473;28;20050;-64
2023/09/21 12:06:59;;;;;;;1.52;0.40;;;;;;;;;;4115694;28;20105;-64
2023/09/21 12:09:01;;;;;;;0.60;0.55;;;;;;;;;;4115514;28;20503;-64
2023/09/21 12:11:04;;;;;;;0.60;0.50;;;;;;;;;;4131506;28;20060;-63
2023/09/21 12:13:06;;;;;;;1.33;0.57;;;;;;;;;;4131576;28;20053;-64
2023/09/21 12:15:10;;;;;;;1.33;0.60;;;;;;;;;;4131574;28;20129;-64
2023/09/21 12:17:19;;;;;;;2.28;0.50;;;;;;;;;;4131628;28;20093;-65
2023/09/21 12:19:21;;;;;;;0.73;0.52;;;;;;;;;;4131632;28;20569;-64
2023/09/21 12:21:22;;;;;;;1.90;0.50;;;;;;;;;;4131749;28;20112;-64
2023/09/21 12:23:24;;;;;;;1.70;0.60;;;;;;;;;;4131574;28;20042;-64
2023/09/21 12:25:26;;;;;;;1.13;0.80;;;;;;;;;;4125051;28;20047;-64